Prentice, Wisconsin
Current Conditions -  °F | °C
As of 7:35 PM on Friday 19 Dec 2014 (Local Time) from KPBH Reporting Station
Overcast Overcast  
Wind Chill: 13°   Ceiling: 600
Heat Index: 22°   Visibility: 10mi
Dew Point: 20°   Wind: 7mph
Humidity: 94%   Direction: 190°S
Pressure: 30.22"   Gusts: NA
Location:  45.55°N, 90.29°W
Report Text: KPBH 200135Z AUTO 19006KT 10SM OVC006 M06/M06 A3022 RMK AO2 T10571065
Loading
Personal Weather Stations






























Interactive Weather Map New forecast layout! Learn more

10-Day Weather Forecast

Advertisements
Track Severe Weather on mobile